Time;durP1;ratioP1;P1;durP2;ratioP2;P2;SDS_P1;SDS_P2;PMS_P1;PMS_P2;Temp;Humidity;BMP_temperature;BMP_pressure;BME280_temperature;BME280_humidity;BME280_pressure;Samples;Min_cycle;Max_cycle;Signal;HPM_P1;HPM_P2
2023/04/11 00:02:26;;;;;;;;;;;;;;;11.04;77.63;100626.22;7349361;19;19923;-66
2023/04/11 00:04:53;;;;;;;;;;;;;;;11.04;78.91;100637.56;7347839;19;19995;-66
2023/04/11 00:07:21;;;;;;;;;;;;;;;11.05;78.35;100631.31;7352462;19;19911;-66
2023/04/11 00:09:48;;;;;;;;;;;;;;;11.04;78.04;100639.38;7361064;19;19938;-66
2023/04/11 00:12:15;;;;;;;;;;;;;;;11.03;78.58;100635.91;7359658;19;19923;-67
2023/04/11 00:14:44;;;;;;;;;;;;;;;11.03;79.18;100638.53;7358600;19;20965;-67
2023/04/11 00:17:11;;;;;;;;;;;;;;;11.00;79.05;100643.31;7354911;19;19974;-66
2023/04/11 00:19:38;;;;;;;;;;;;;;;10.99;79.06;100644.28;7357180;19;19918;-66
2023/04/11 00:22:05;;;;;;;;;;;;;;;10.98;78.90;100658.44;7358864;19;19958;-66
2023/04/11 00:24:32;;;;;;;;;;;;;;;10.99;79.29;100660.09;7357633;19;19925;-68
2023/04/11 00:27:00;;;;;;;;;;;;;;;10.98;79.62;100658.44;7354455;19;20357;-67
2023/04/11 00:29:27;;;;;;;;;;;;;;;10.97;78.87;100656.81;7358991;19;19930;-66
2023/04/11 00:31:55;;;;;;;;;;;;;;;10.95;78.64;100658.75;7358196;19;19927;-67
2023/04/11 00:34:22;;;;;;;;;;;;;;;10.88;77.78;100653.31;7355512;19;19927;-67
2023/04/11 00:36:49;;;;;;;;;;;;;;;10.78;78.29;100657.88;7357373;19;20763;-68
2023/04/11 00:39:17;;;;;;;;;;;;;;;10.76;78.89;100656.41;7359185;19;19967;-67
2023/04/11 00:41:44;;;;;;;;;;;;;;;10.75;79.40;100660.84;7356818;19;19915;-68
2023/04/11 00:44:12;;;;;;;;;;;;;;;10.76;79.35;100674.81;7356295;19;19930;-67
2023/04/11 00:46:41;;;;;;;;;;;;;;;10.75;79.81;100670.53;7355281;19;19923;-68
2023/04/11 00:49:12;;;;;;;;;;;;;;;10.71;79.77;100675.28;7354775;19;19921;-69
2023/04/11 00:51:38;;;;;;;;;;;;;;;10.69;79.90;100680.72;7358378;19;19929;-66
2023/04/11 00:54:09;;;;;;;;;;;;;;;10.71;80.18;100694.53;7355796;19;19956;-68
2023/04/11 00:56:36;;;;;;;;;;;;;;;10.67;79.73;100693.19;7351322;19;19926;-67
2023/04/11 00:59:03;;;;;;;;;;;;;;;10.65;80.32;100689.06;7357324;19;19957;-67
2023/04/11 01:01:34;;;;;;;;;;;;;;;10.62;80.28;100698.09;7357099;19;19926;-67
2023/04/11 01:04:02;;;;;;;;;;;;;;;10.63;80.37;100691.03;7353292;19;19915;-67
2023/04/11 01:06:29;;;;;;;;;;;;;;;10.63;81.63;100697.13;7351509;19;19994;-67
2023/04/11 01:08:56;;;;;;;;;;;;;;;10.65;81.63;100699.59;7358108;19;19925;-66
2023/04/11 01:11:24;;;;;;;;;;;;;;;10.61;80.79;100696.47;7357398;19;19915;-67
2023/04/11 01:13:51;;;;;;;;;;;;;;;10.57;80.66;100696.91;7357300;19;20739;-68
2023/04/11 01:16:20;;;;;;;;;;;;;;;10.55;80.96;100685.72;7351354;19;20156;-71
2023/04/11 01:18:48;;;;;;;;;;;;;;;10.52;81.08;100689.47;7353384;19;19933;-66
2023/04/11 01:21:18;;;;;;;;;;;;;;;10.51;81.06;100685.22;7354208;19;19919;-67
2023/04/11 01:23:47;;;;;;;;;;;;;;;10.52;81.04;100689.47;7356668;19;19923;-66
2023/04/11 01:26:15;;;;;;;;;;;;;;;10.52;80.57;100686.84;7349403;19;19922;-66
2023/04/11 01:28:42;;;;;;;;;;;;;;;10.52;80.59;100688.66;7353488;19;20155;-67
2023/04/11 01:31:09;;;;;;;;;;;;;;;10.47;80.41;100693.56;7356108;19;20324;-67
2023/04/11 01:33:36;;;;;;;;;;;;;;;10.46;80.98;100692.75;7355670;19;19911;-66
2023/04/11 01:36:03;;;;;;;;;;;;;;;10.45;80.89;100695.53;7349725;19;19919;-66
2023/04/11 01:38:30;;;;;;;;;;;;;;;10.42;81.35;100701.91;7356372;19;19943;-66
2023/04/11 01:40:58;;;;;;;;;;;;;;;10.37;80.83;100695.47;7358381;19;19915;-66
2023/04/11 01:43:25;;;;;;;;;;;;;;;10.34;80.80;100701.03;7353922;19;19923;-67
2023/04/11 01:45:52;;;;;;;;;;;;;;;10.31;81.41;100710.06;7352418;19;19947;-66
2023/04/11 01:48:19;;;;;;;;;;;;;;;10.28;81.63;100707.75;7353458;19;20265;-67
2023/04/11 01:50:46;;;;;;;;;;;;;;;10.27;81.18;100711.34;7353162;19;19919;-68
2023/04/11 01:53:13;;;;;;;;;;;;;;;10.26;81.28;100718.41;7356769;19;19952;-68
2023/04/11 01:55:40;;;;;;;;;;;;;;;10.26;81.91;100718.41;7351926;19;19937;-66
2023/04/11 01:58:07;;;;;;;;;;;;;;;10.29;82.10;100730.44;7353278;19;19921;-67
2023/04/11 02:00:35;;;;;;;;;;;;;;;10.28;81.82;100728.78;7357574;19;19934;-68
2023/04/11 02:03:03;;;;;;;;;;;;;;;10.26;81.72;100730.72;7350829;19;19942;-68
2023/04/11 02:05:31;;;;;;;;;;;;;;;10.27;82.05;100725.31;7350939;19;19923;-67
2023/04/11 02:07:58;;;;;;;;;;;;;;;10.25;82.08;100729.94;7347549;19;20278;-66
2023/04/11 02:10:25;;;;;;;;;;;;;;;10.24;81.92;100730.91;7355530;19;19911;-67
2023/04/11 02:12:52;;;;;;;;;;;;;;;10.26;82.17;100723.66;7356099;19;19949;-67
2023/04/11 02:15:19;;;;;;;;;;;;;;;10.31;83.40;100727.66;7353396;19;19921;-66
2023/04/11 02:17:46;;;;;;;;;;;;;;;10.30;82.80;100724.22;7346372;19;21320;-68
2023/04/11 02:20:13;;;;;;;;;;;;;;;10.26;82.11;100728.09;7356017;19;19930;-68
2023/04/11 02:22:40;;;;;;;;;;;;;;;10.23;82.45;100734.50;7353640;19;20182;-67
2023/04/11 02:25:07;;;;;;;;;;;;;;;10.22;82.55;100732.84;7353928;19;20022;-66
2023/04/11 02:27:34;;;;;;;;;;;;;;;10.21;82.52;100736.44;7351411;19;19926;-66
2023/04/11 02:30:04;;;;;;;;;;;;;;;10.22;82.81;100740.72;7355274;19;20514;-67
2023/04/11 02:32:33;;;;;;;;;;;;;;;10.20;82.77;100737.44;7351117;19;19923;-67
2023/04/11 02:35:00;;;;;;;;;;;;;;;10.17;82.32;100736.91;7349515;19;19947;-66
2023/04/11 02:37:27;;;;;;;;;;;;;;;10.18;83.81;100739.38;7352361;19;19948;-67
2023/04/11 02:39:54;;;;;;;;;;;;;;;10.15;83.43;100737.06;7349818;19;19955;-66
2023/04/11 02:42:21;;;;;;;;;;;;;;;10.09;82.53;100737.66;7348424;19;19926;-67
2023/04/11 02:44:48;;;;;;;;;;;;;;;10.10;83.49;100754.25;7351412;19;20269;-68
2023/04/11 02:47:15;;;;;;;;;;;;;;;10.11;83.65;100753.25;7348373;19;19918;-67
2023/04/11 02:49:42;;;;;;;;;;;;;;;10.10;83.69;100751.63;7352075;19;19925;-66
2023/04/11 02:52:09;;;;;;;;;;;;;;;10.07;83.92;100757.16;7353637;19;19931;-66
2023/04/11 02:54:36;;;;;;;;;;;;;;;10.04;83.19;100755.69;7350229;19;19925;-67
2023/04/11 02:57:03;;;;;;;;;;;;;;;10.03;83.39;100755.81;7351958;19;19914;-67
2023/04/11 02:59:30;;;;;;;;;;;;;;;10.04;83.57;100757.47;7353899;19;19915;-66
2023/04/11 03:01:58;;;;;;;;;;;;;;;10.03;83.11;100759.28;7353853;19;19914;-68
2023/04/11 03:04:25;;;;;;;;;;;;;;;10.06;83.91;100755.50;7350676;19;19949;-67
2023/04/11 03:06:52;;;;;;;;;;;;;;;10.04;83.63;100757.47;7347570;19;20009;-68
2023/04/11 03:09:20;;;;;;;;;;;;;;;10.04;83.46;100762.72;7349153;19;19926;-67
2023/04/11 03:11:47;;;;;;;;;;;;;;;10.03;84.00;100754.03;7353342;19;19919;-67
2023/04/11 03:14:14;;;;;;;;;;;;;;;10.02;84.27;100755.00;7353119;19;20357;-66
2023/04/11 03:16:41;;;;;;;;;;;;;;;10.02;83.95;100754.16;7352250;19;19919;-67
2023/04/11 03:19:08;;;;;;;;;;;;;;;10.05;84.98;100761.75;7347104;19;19915;-67
2023/04/11 03:21:35;;;;;;;;;;;;;;;10.03;84.57;100758.44;7351848;19;19947;-67
2023/04/11 03:24:02;;;;;;;;;;;;;;;9.99;83.51;100760.56;7351681;19;19943;-66
2023/04/11 03:26:28;;;;;;;;;;;;;;;9.96;83.84;100768.72;7350802;19;20216;-68
2023/04/11 03:28:55;;;;;;;;;;;;;;;9.95;83.61;100769.72;7350777;19;19915;-66
2023/04/11 03:31:23;;;;;;;;;;;;;;;9.94;83.70;100772.50;7351955;19;19937;-67
2023/04/11 03:33:50;;;;;;;;;;;;;;;9.89;83.23;100775.56;7350222;19;20006;-66
2023/04/11 03:36:17;;;;;;;;;;;;;;;9.88;83.50;100761.59;7347200;19;19930;-67
2023/04/11 03:38:44;;;;;;;;;;;;;;;9.88;83.78;100760.78;7354594;19;20280;-67
2023/04/11 03:41:11;;;;;;;;;;;;;;;9.84;83.39;100767.31;7357935;19;19934;-67
2023/04/11 03:43:38;;;;;;;;;;;;;;;9.80;83.56;100768.59;7360670;19;20296;-66
2023/04/11 03:46:05;;;;;;;;;;;;;;;9.78;83.61;100762.66;7354431;19;19954;-67
2023/04/11 03:48:32;;;;;;;;;;;;;;;9.75;83.47;100766.38;7358638;19;19957;-68
2023/04/11 03:50:59;;;;;;;;;;;;;;;9.77;84.26;100766.25;7360737;19;20392;-67
2023/04/11 03:53:26;;;;;;;;;;;;;;;9.77;84.88;100758.38;7359679;19;19918;-67
2023/04/11 03:55:54;;;;;;;;;;;;;;;9.75;84.57;100755.09;7353263;19;19918;-66
2023/04/11 03:58:20;;;;;;;;;;;;;;;9.72;84.17;100758.81;7353276;19;19919;-66
2023/04/11 04:00:48;;;;;;;;;;;;;;;9.69;84.04;100759.13;7360091;19;19919;-65
2023/04/11 04:03:15;;;;;;;;;;;;;;;9.69;83.97;100755.69;7359223;19;20265;-66
2023/04/11 04:05:42;;;;;;;;;;;;;;;9.69;83.93;100755.69;7356175;19;19911;-67
2023/04/11 04:08:09;;;;;;;;;;;;;;;9.67;84.15;100755.81;7352692;19;19911;-66
2023/04/11 04:10:36;;;;;;;;;;;;;;;9.65;83.49;100751.69;7356325;19;19922;-69
2023/04/11 04:13:04;;;;;;;;;;;;;;;9.64;83.34;100756.13;7362080;19;20337;-67
2023/04/11 04:15:31;;;;;;;;;;;;;;;9.64;82.71;100768.44;7358897;19;20407;-66
2023/04/11 04:17:58;;;;;;;;;;;;;;;9.62;82.63;100755.44;7350822;19;20618;-67
2023/04/11 04:20:25;;;;;;;;;;;;;;;9.61;83.05;100768.72;7358407;19;19959;-67
2023/04/11 04:22:52;;;;;;;;;;;;;;;9.60;83.31;100767.88;7360313;19;20026;-68
2023/04/11 04:25:19;;;;;;;;;;;;;;;9.56;82.23;100773.56;7356343;19;19926;-66
2023/04/11 04:27:47;;;;;;;;;;;;;;;9.57;82.45;100780.47;7356411;19;19930;-66
2023/04/11 04:30:14;;;;;;;;;;;;;;;9.59;82.46;100781.19;7357634;19;19950;-66
2023/04/11 04:32:42;;;;;;;;;;;;;;;9.61;82.98;100776.59;7357363;19;19926;-67
2023/04/11 04:35:10;;;;;;;;;;;;;;;9.63;82.17;100785.16;7356197;19;19927;-67
2023/04/11 04:37:43;;;;;;;;;;;;;;;9.64;81.55;100771.88;7359974;19;19923;-68
2023/04/11 04:40:12;;;;;;;;;;;;;;;9.64;81.16;100787.66;7359633;19;19911;-67
2023/04/11 04:42:41;;;;;;;;;;;;;;;9.63;81.46;100779.91;7356897;19;20452;-67
2023/04/11 04:45:10;;;;;;;;;;;;;;;9.63;81.34;100785.16;7354452;19;20361;-67
2023/04/11 04:47:37;;;;;;;;;;;;;;;9.60;81.05;100786.25;7353910;19;19922;-66
2023/04/11 04:50:04;;;;;;;;;;;;;;;9.57;80.55;100783.94;7356486;19;20364;-66
2023/04/11 04:52:32;;;;;;;;;;;;;;;9.56;80.56;100784.09;7356180;19;19911;-66
2023/04/11 04:54:59;;;;;;;;;;;;;;;9.57;81.38;100785.75;7355376;19;19914;-66
2023/04/11 04:57:27;;;;;;;;;;;;;;;9.51;80.32;100789.78;7353817;19;19919;-67
2023/04/11 04:59:55;;;;;;;;;;;;;;;9.51;80.72;100795.03;7361746;19;19929;-66
2023/04/11 05:02:24;;;;;;;;;;;;;;;9.49;81.31;100785.66;7354017;19;20463;-68
2023/04/11 05:04:52;;;;;;;;;;;;;;;9.46;80.92;100792.00;7354177;19;19934;-67
2023/04/11 05:07:19;;;;;;;;;;;;;;;9.44;80.36;100801.84;7351742;19;19930;-67
2023/04/11 05:09:46;;;;;;;;;;;;;;;9.42;81.26;100798.53;7356688;19;19947;-66
2023/04/11 05:12:14;;;;;;;;;;;;;;;9.43;81.08;100798.41;7353116;19;20008;-66
2023/04/11 05:14:41;;;;;;;;;;;;;;;9.44;81.06;100810.56;7350323;19;19947;-66
2023/04/11 05:17:08;;;;;;;;;;;;;;;9.47;80.87;100809.44;7351754;19;19914;-66
2023/04/11 05:19:35;;;;;;;;;;;;;;;9.44;79.89;100807.13;7353043;19;19943;-66
2023/04/11 05:22:02;;;;;;;;;;;;;;;9.41;80.27;100812.63;7357958;19;19926;-65
2023/04/11 05:24:29;;;;;;;;;;;;;;;9.44;80.72;100815.81;7355294;19;20132;-66
2023/04/11 05:26:57;;;;;;;;;;;;;;;9.48;81.32;100818.97;7351944;19;19927;-67
2023/04/11 05:29:24;;;;;;;;;;;;;;;9.50;81.22;100822.25;7357351;19;20418;-68
2023/04/11 05:31:51;;;;;;;;;;;;;;;9.50;80.56;100822.25;7354118;19;19975;-66
2023/04/11 05:34:18;;;;;;;;;;;;;;;9.55;81.03;100833.16;7353191;19;19919;-68
2023/04/11 05:36:46;;;;;;;;;;;;;;;9.58;81.26;100832.06;7350633;19;19939;-67
2023/04/11 05:39:12;;;;;;;;;;;;;;;9.57;81.14;100833.00;7355010;19;19938;-66
2023/04/11 05:41:40;;;;;;;;;;;;;;;9.59;81.05;100842.41;7357330;19;20353;-66
2023/04/11 05:44:07;;;;;;;;;;;;;;;9.62;82.25;100843.91;7355878;19;19990;-67
2023/04/11 05:46:36;;;;;;;;;;;;;;;9.65;81.57;100846.25;7350373;19;19922;-67
2023/04/11 05:49:03;;;;;;;;;;;;;;;9.60;81.11;100851.94;7350446;19;19919;-68
2023/04/11 05:51:30;;;;;;;;;;;;;;;9.59;80.94;100839.78;7351304;19;19915;-67
2023/04/11 05:53:57;;;;;;;;;;;;;;;9.56;80.55;100847.94;7353573;19;20290;-67
2023/04/11 05:56:24;;;;;;;;;;;;;;;9.54;80.63;100854.34;7352588;19;20252;-66
2023/04/11 05:58:51;;;;;;;;;;;;;;;9.57;81.39;100854.03;7352809;19;19923;-67
2023/04/11 06:01:18;;;;;;;;;;;;;;;9.59;81.42;100854.72;7354371;19;20522;-67
2023/04/11 06:03:45;;;;;;;;;;;;;;;9.59;81.31;100859.97;7356200;19;20398;-67
2023/04/11 06:06:13;;;;;;;;;;;;;;;9.62;81.40;100854.41;7352110;19;19975;-67
2023/04/11 06:08:40;;;;;;;;;;;;;;;9.66;81.64;100858.41;7358591;19;19918;-67
2023/04/11 06:11:07;;;;;;;;;;;;;;;9.67;81.78;100860.06;7355514;19;19934;-66
2023/04/11 06:13:34;;;;;;;;;;;;;;;9.67;82.01;100862.69;7353782;19;19925;-67
2023/04/11 06:16:01;;;;;;;;;;;;;;;9.71;82.20;100867.50;7350651;19;19923;-67
2023/04/11 06:18:28;;;;;;;;;;;;;;;9.75;81.33;100865.44;7350732;19;19919;-68
2023/04/11 06:20:55;;;;;;;;;;;;;;;9.80;80.98;100866.63;7354183;19;19915;-68
2023/04/11 06:23:22;;;;;;;;;;;;;;;9.82;81.13;100869.94;7355469;19;20777;-70
2023/04/11 06:25:49;;;;;;;;;;;;;;;9.87;81.50;100872.94;7347721;19;19923;-68
2023/04/11 06:28:16;;;;;;;;;;;;;;;9.92;80.65;100874.31;7352967;19;20385;-68
2023/04/11 06:30:43;;;;;;;;;;;;;;;9.92;80.56;100875.13;7356737;19;19935;-66
2023/04/11 06:33:10;;;;;;;;;;;;;;;9.97;80.39;100883.41;7356611;19;19919;-67
2023/04/11 06:35:37;;;;;;;;;;;;;;;10.01;80.53;100876.88;7351666;19;20332;-66
2023/04/11 06:38:04;;;;;;;;;;;;;;;10.05;80.26;100880.06;7351560;19;19922;-68
2023/04/11 06:40:31;;;;;;;;;;;;;;;10.05;79.43;100880.06;7354040;19;20426;-67
2023/04/11 06:43:00;;;;;;;;;;;;;;;10.03;78.86;100877.56;7355247;19;19915;-66
2023/04/11 06:45:27;;;;;;;;;;;;;;;10.06;79.20;100877.25;7353248;19;19927;-67
2023/04/11 06:47:54;;;;;;;;;;;;;;;10.24;80.43;100864.16;7349904;19;19923;-67
2023/04/11 06:50:22;;;;;;;;;;;;;;;10.56;79.64;100875.00;7350910;19;19911;-68
2023/04/11 06:52:49;;;;;;;;;;;;;;;11.05;77.51;100878.00;7353970;19;20254;-67
2023/04/11 06:55:16;;;;;;;;;;;;;;;11.26;75.81;100881.09;7352453;19;19915;-67
2023/04/11 06:57:43;;;;;;;;;;;;;;;11.53;74.24;100883.53;7351308;19;19976;-66
2023/04/11 07:00:11;;;;;;;;;;;;;;;11.94;72.07;100883.72;7356287;19;19930;-69
2023/04/11 07:02:39;;;;;;;;;;;;;;;12.11;70.60;100884.59;7353081;19;19911;-67
2023/04/11 07:05:09;;;;;;;;;;;;;;;12.13;69.55;100891.38;7349732;19;19930;-70
2023/04/11 07:07:36;;;;;;;;;;;;;;;12.37;69.50;100899.31;7355973;19;19982;-66
2023/04/11 07:10:04;;;;;;;;;;;;;;;12.88;67.91;100905.28;7355907;19;19926;-67
2023/04/11 07:12:32;;;;;;;;;;;;;;;13.59;66.16;100909.81;7346946;19;20409;-66
2023/04/11 07:15:00;;;;;;;;;;;;;;;13.99;63.03;100906.19;7348703;19;19947;-67
2023/04/11 07:17:27;;;;;;;;;;;;;;;13.86;61.59;100909.41;7344564;19;19919;-67
2023/04/11 07:19:54;;;;;;;;;;;;;;;13.53;63.37;100913.13;7349605;19;19929;-66
2023/04/11 07:22:22;;;;;;;;;;;;;;;13.25;64.49;100900.34;7353056;19;19929;-66
2023/04/11 07:24:50;;;;;;;;;;;;;;;13.46;63.84;100901.59;7352463;19;20775;-68
2023/04/11 07:27:18;;;;;;;;;;;;;;;14.16;62.09;100901.63;7348301;19;19922;-68
2023/04/11 07:29:45;;;;;;;;;;;;;;;14.64;59.94;100909.28;7351648;19;19929;-69
2023/04/11 07:32:12;;;;;;;;;;;;;;;14.70;58.76;100905.09;7352847;19;19922;-68
2023/04/11 07:34:39;;;;;;;;;;;;;;;14.88;58.35;100895.81;7349078;19;19918;-68
2023/04/11 07:37:06;;;;;;;;;;;;;;;14.92;57.96;100905.09;7348022;19;19923;-68
2023/04/11 07:39:33;;;;;;;;;;;;;;;14.89;56.32;100902.78;7353105;19;19982;-67
2023/04/11 07:42:01;;;;;;;;;;;;;;;14.79;57.24;100906.66;7350761;19;20511;-67
2023/04/11 07:44:28;;;;;;;;;;;;;;;14.80;56.84;100897.72;7351083;19;19978;-68
2023/04/11 07:46:55;;;;;;;;;;;;;;;14.97;57.21;100912.50;7348218;19;19999;-67
2023/04/11 07:49:22;;;;;;;;;;;;;;;14.97;56.29;100915.97;7349951;19;20645;-67
2023/04/11 07:51:49;;;;;;;;;;;;;;;15.16;56.84;100897.91;7352122;19;19974;-67
2023/04/11 07:54:16;;;;;;;;;;;;;;;15.42;56.69;100887.69;7349283;19;19923;-68
2023/04/11 07:56:44;;;;;;;;;;;;;;;15.78;55.50;100890.44;7346707;19;20486;-67
2023/04/11 07:59:14;;;;;;;;;;;;;;;16.11;53.77;100894.31;7352940;19;19915;-66
2023/04/11 08:01:41;;;;;;;;;;;;;;;16.31;54.96;100889.19;7349350;19;19968;-68
2023/04/11 08:04:09;;;;;;;;;;;;;;;16.47;52.68;100894.28;7352789;19;19923;-67
2023/04/11 08:06:37;;;;;;;;;;;;;;;17.02;52.96;100888.22;7349902;19;19982;-67
2023/04/11 08:09:04;;;;;;;;;;;;;;;17.40;50.89;100890.53;7352185;19;19930;-67
2023/04/11 08:11:31;;;;;;;;;;;;;;;17.54;49.94;100876.28;7351365;19;19922;-67
2023/04/11 08:13:58;;;;;;;;;;;;;;;17.79;49.83;100871.31;7347115;19;19922;-67
2023/04/11 08:16:25;;;;;;;;;;;;;;;18.10;49.49;100874.31;7343108;19;20263;-68
2023/04/11 08:18:53;;;;;;;;;;;;;;;17.74;48.57;100877.25;7349887;19;20577;-66
2023/04/11 08:21:22;;;;;;;;;;;;;;;16.99;50.88;100887.81;7350624;19;20513;-68
2023/04/11 08:23:50;;;;;;;;;;;;;;;16.19;51.58;100877.44;7350908;19;20640;-68
2023/04/11 08:26:17;;;;;;;;;;;;;;;15.57;54.58;100877.94;7347658;19;20310;-68
2023/04/11 08:28:45;;;;;;;;;;;;;;;15.13;56.90;100874.41;7354988;19;19934;-67
2023/04/11 08:31:12;;;;;;;;;;;;;;;14.90;57.11;100872.63;7359199;19;20237;-70
2023/04/11 08:33:43;;;;;;;;;;;;;;;14.78;58.23;100870.59;7357610;19;19999;-68
2023/04/11 08:36:14;;;;;;;;;;;;;;;14.65;58.69;100876.50;7354791;19;19935;-68
2023/04/11 08:38:42;;;;;;;;;;;;;;;14.57;58.68;100867.81;7353386;19;19930;-67
2023/04/11 08:41:10;;;;;;;;;;;;;;;14.45;59.59;100870.03;7354558;19;19983;-67
2023/04/11 08:43:39;;;;;;;;;;;;;;;14.33;59.80;100861.63;7353655;19;20246;-67
2023/04/11 08:46:07;;;;;;;;;;;;;;;14.25;60.50;100866.19;7355323;19;20248;-65
2023/04/11 08:48:34;;;;;;;;;;;;;;;14.07;61.02;100867.25;7352471;19;19926;-67
2023/04/11 08:51:02;;;;;;;;;;;;;;;14.02;61.86;100860.84;7356067;19;19922;-67
2023/04/11 08:53:30;;;;;;;;;;;;;;;14.01;61.85;100864.50;7357117;19;19925;-66
2023/04/11 08:55:58;;;;;;;;;;;;;;;13.97;61.31;100866.66;7351710;19;19922;-68
2023/04/11 08:58:25;;;;;;;;;;;;;;;13.94;61.70;100856.44;7354365;19;21538;-68
2023/04/11 09:00:53;;;;;;;;;;;;;;;13.95;61.34;100862.56;7356161;19;20364;-68
2023/04/11 09:03:20;;;;;;;;;;;;;;;13.97;61.38;100857.91;7353743;19;20324;-68
2023/04/11 09:05:47;;;;;;;;;;;;;;;14.00;60.22;100861.03;7353542;19;20002;-66
2023/04/11 09:08:15;;;;;;;;;;;;;;;14.03;59.86;100867.78;7358275;19;19926;-68
2023/04/11 09:10:44;;;;;;;;;;;;;;;14.02;60.21;100866.13;7359077;19;19922;-66
2023/04/11 09:13:14;;;;;;;;;;;;;;;14.09;60.05;100867.94;7356469;19;19919;-68
2023/04/11 09:15:42;;;;;;;;;;;;;;;14.22;60.02;100858.59;7351748;19;19931;-66
2023/04/11 09:18:09;;;;;;;;;;;;;;;14.22;59.32;100863.88;7352710;19;20580;-67
2023/04/11 09:20:36;;;;;;;;;;;;;;;14.22;59.65;100869.97;7355365;19;19919;-66
2023/04/11 09:23:03;;;;;;;;;;;;;;;14.26;59.47;100867.81;7358355;19;20160;-66
2023/04/11 09:25:42;;;;;;;;;;;;;;;14.40;59.87;100869.75;7352919;19;20490;-66
2023/04/11 09:28:10;;;;;;;;;;;;;;;14.51;59.27;100864.88;7346963;19;19925;-65
2023/04/11 09:30:54;;;;;;;;;;;;;;;14.54;56.91;100866.31;7356679;19;19931;-65
2023/04/11 09:33:33;;;;;;;;;;;;;;;14.55;56.96;100866.16;7355481;19;20152;-66
2023/04/11 09:36:16;;;;;;;;;;;;;;;14.63;56.77;100861.81;7351685;19;20467;-67
2023/04/11 09:38:43;;;;;;;;;;;;;;;14.68;56.54;100859.44;7351533;19;20557;-68
2023/04/11 09:41:10;;;;;;;;;;;;;;;14.78;57.55;100868.75;7357508;19;19930;-69
2023/04/11 09:43:40;;;;;;;;;;;;;;;14.89;57.39;100868.34;7351797;19;19922;-66
2023/04/11 09:46:10;;;;;;;;;;;;;;;15.01;55.87;100865.25;7353657;19;21553;-67
2023/04/11 09:48:39;;;;;;;;;;;;;;;15.13;55.55;100853.22;7356686;19;19926;-67
2023/04/11 09:51:09;;;;;;;;;;;;;;;15.18;55.24;100853.50;7354811;19;20011;-67
2023/04/11 09:53:40;;;;;;;;;;;;;;;15.17;54.12;100854.50;7355825;19;20306;-66
2023/04/11 09:56:07;;;;;;;;;;;;;;;15.24;54.46;100850.91;7354867;19;20675;-66
2023/04/11 09:58:36;;;;;;;;;;;;;;;15.38;55.46;100841.34;7352313;19;20827;-66
2023/04/11 10:01:06;;;;;;;;;;;;;;;15.40;54.20;100828.69;7353976;19;20007;-67
2023/04/11 10:03:34;;;;;;;;;;;;;;;15.51;54.94;100822.97;7351938;19;19994;-66
2023/04/11 10:06:03;;;;;;;;;;;;;;;15.56;55.00;100823.22;7350049;19;20797;-67
2023/04/11 10:08:32;;;;;;;;;;;;;;;15.49;51.77;100822.28;7353964;19;20479;-65
2023/04/11 10:10:59;;;;;;;;;;;;;;;15.51;52.97;100816.78;7356352;19;20003;-65
2023/04/11 10:13:29;;;;;;;;;;;;;;;15.52;52.35;100816.66;7360666;19;19939;-65
2023/04/11 10:16:00;;;;;;;;;;;;;;;15.57;53.01;100822.22;7352378;19;19915;-66
2023/04/11 10:18:28;;;;;;;;;;;;;;;15.56;52.14;100814.44;7353204;19;20021;-67
2023/04/11 10:20:55;;;;;;;;;;;;;;;15.51;52.29;100811.50;7359553;19;20333;-67
2023/04/11 10:23:22;;;;;;;;;;;;;;;15.52;52.36;100806.03;7385247;19;19930;-66
2023/04/11 10:25:52;;;;;;;;;;;;;;;15.49;51.49;100797.63;7374362;19;19919;-67
2023/04/11 10:28:22;;;;;;;;;;;;;;;15.39;51.13;100798.69;7352684;19;19922;-66
2023/04/11 10:30:52;;;;;;;;;;;;;;;15.35;51.45;100802.72;7355060;19;19983;-68
2023/04/11 10:33:22;;;;;;;;;;;;;;;15.37;52.19;100800.72;7352977;19;20590;-65
2023/04/11 10:35:52;;;;;;;;;;;;;;;15.43;52.23;100798.34;7351620;19;20689;-67
2023/04/11 10:38:23;;;;;;;;;;;;;;;15.44;51.94;100784.09;7351602;19;19927;-65
2023/04/11 10:40:53;;;;;;;;;;;;;;;15.50;52.03;100783.31;7353132;19;19919;-65
2023/04/11 10:43:21;;;;;;;;;;;;;;;15.57;51.36;100776.31;7352546;19;20714;-66
2023/04/11 10:46:08;;;;;;;;;;;;;;;15.60;51.72;100766.13;7350053;19;20001;-65
2023/04/11 10:48:54;;;;;;;;;;;;;;;15.60;50.45;100770.63;7349735;19;19935;-66
2023/04/11 10:51:24;;;;;;;;;;;;;;;15.58;51.37;100762.88;7348899;19;19919;-65
2023/04/11 10:53:52;;;;;;;;;;;;;;;15.51;50.15;100754.00;7350689;19;19925;-66
2023/04/11 10:56:22;;;;;;;;;;;;;;;15.46;50.68;100759.00;7350033;19;19919;-67
2023/04/11 10:58:52;;;;;;;;;;;;;;;15.49;50.87;100758.63;7349931;19;20110;-65
2023/04/11 11:01:19;;;;;;;;;;;;;;;15.45;50.19;100753.88;7350728;19;20033;-66
2023/04/11 11:04:03;;;;;;;;;;;;;;;15.33;49.63;100757.03;7351758;19;19919;-66
2023/04/11 11:06:33;;;;;;;;;;;;;;;15.35;50.39;100755.00;7348584;19;19918;-66
2023/04/11 11:09:13;;;;;;;;;;;;;;;15.36;50.37;100748.69;7350696;19;21606;-66
2023/04/11 11:11:40;;;;;;;;;;;;;;;15.43;49.87;100740.00;7359290;19;20512;-66
2023/04/11 11:14:07;;;;;;;;;;;;;;;15.48;50.82;100737.63;7355002;19;19915;-67
2023/04/11 11:16:35;;;;;;;;;;;;;;;15.53;50.66;100736.09;7348111;19;19949;-66
2023/04/11 11:19:05;;;;;;;;;;;;;;;15.55;49.48;100735.88;7356310;19;20430;-66
2023/04/11 11:21:33;;;;;;;;;;;;;;;15.70;50.82;100734.81;7356495;19;20284;-65
2023/04/11 11:24:01;;;;;;;;;;;;;;;15.78;51.01;100740.03;7356309;19;19947;-67
2023/04/11 11:26:32;;;;;;;;;;;;;;;15.80;50.83;100732.69;7354392;19;19952;-66
2023/04/11 11:28:59;;;;;;;;;;;;;;;15.81;50.74;100726.38;7353449;19;19923;-66
2023/04/11 11:31:29;;;;;;;;;;;;;;;15.77;50.96;100733.06;7354510;19;19923;-66
2023/04/11 11:33:57;;;;;;;;;;;;;;;15.84;50.68;100730.50;7359259;19;19967;-67
2023/04/11 11:36:45;;;;;;;;;;;;;;;15.84;50.21;100733.16;7356865;19;19922;-66
2023/04/11 11:39:14;;;;;;;;;;;;;;;15.82;50.80;100732.50;7355583;19;20314;-66
2023/04/11 11:41:41;;;;;;;;;;;;;;;15.79;51.09;100728.41;7354430;19;19923;-66
2023/04/11 11:44:19;;;;;;;;;;;;;;;15.74;50.37;100732.63;7357015;19;19979;-66
2023/04/11 11:46:50;;;;;;;;;;;;;;;15.73;51.18;100734.47;7353665;19;20030;-66
2023/04/11 11:49:17;;;;;;;;;;;;;;;15.70;50.24;100712.78;7353043;19;19930;-65
2023/04/11 11:51:46;;;;;;;;;;;;;;;15.72;50.62;100705.47;7357033;19;20138;-66
2023/04/11 11:54:14;;;;;;;;;;;;;;;15.70;50.76;100704.81;7352940;19;19910;-67
2023/04/11 11:56:48;;;;;;;;;;;;;;;15.69;51.12;100701.38;7353430;19;19919;-67
2023/04/11 11:59:24;;;;;;;;;;;;;;;15.69;50.46;100698.72;7350770;19;20341;-66
2023/04/11 12:01:52;;;;;;;;;;;;;;;15.75;51.28;100687.31;7353921;19;20007;-66
2023/04/11 12:04:20;;;;;;;;;;;;;;;15.77;50.26;100687.97;7360143;19;20252;-67
2023/04/11 12:06:48;;;;;;;;;;;;;;;15.81;49.46;100675.13;7363453;19;20349;-66
2023/04/11 12:09:15;;;;;;;;;;;;;;;15.94;50.55;100671.78;7363280;19;19922;-67
2023/04/11 12:11:44;;;;;;;;;;;;;;;15.96;50.70;100667.09;7362079;19;20363;-66
2023/04/11 12:14:21;;;;;;;;;;;;;;;16.03;50.40;100666.16;7358425;19;20666;-67
2023/04/11 12:16:52;;;;;;;;;;;;;;;16.17;50.06;100667.06;7354753;19;19918;-65
2023/04/11 12:19:20;;;;;;;;;;;;;;;16.21;50.24;100653.19;7349157;19;19923;-66
2023/04/11 12:21:47;;;;;;;;;;;;;;;16.21;49.22;100644.41;7361239;19;19935;-66
2023/04/11 12:24:15;;;;;;;;;;;;;;;16.17;49.76;100646.66;7355437;19;19915;-66
2023/04/11 12:26:44;;;;;;;;;;;;;;;16.08;53.11;100654.94;7352387;19;20386;-66
2023/04/11 12:29:32;;;;;;;;;;;;;;;15.81;57.88;100667.16;7358374;19;19919;-66
2023/04/11 12:31:59;;;;;;;;;;;;;;;15.50;60.27;100672.75;7353989;19;19994;-65
2023/04/11 12:34:27;;;;;;;;;;;;;;;15.17;62.38;100664.47;7353768;19;20471;-64
2023/04/11 12:36:56;;;;;;;;;;;;;;;14.98;64.20;100644.66;7358908;19;20271;-67
2023/04/11 12:39:24;;;;;;;;;;;;;;;14.83;66.43;100641.22;7359166;19;19948;-67
2023/04/11 12:41:51;;;;;;;;;;;;;;;14.87;67.46;100639.88;7354875;19;19923;-67
2023/04/11 12:44:19;;;;;;;;;;;;;;;14.91;66.23;100632.34;7356980;19;19954;-66